Air Navigation Services of Czech Republic  
Last data update:  23.05.2024 18:46:39 UTC česká verze
   METEO Page displayed:  23.05.2024 18:47:38 UTC  
vysvětlivky
METAR EDAC 231820Z AUTO 12002KT 9999 // SCT110/// 19/13 Q1015=
METAR EDDB 231820Z AUTO 31005KT CAVOK 22/10 Q1015 NOSIG=
METAR EDDC 231820Z AUTO 32003KT CAVOK 20/10 Q1015 NOSIG=
METAR EDDE 231820Z AUTO 18003KT 150V210 CAVOK 18/12 Q1016=
METAR EDDF 231820Z AUTO 25008KT CAVOK 20/10 Q1015 NOSIG=
METAR EDDM 231820Z AUTO 25011KT 230V290 7000 -RA FEW008 11/10 Q1017 TEMPO 4000 RA BKN012=
METAR COR EDDN 231820Z AUTO 02005KT CAVOK 19/11 Q1015 TEMPO 24010KT SHRA SCT040CB=
METAR EDDP 231820Z AUTO 02003KT CAVOK 21/12 Q1015=
METAR EDQM 231820Z AUTO 02005KT 340V060 9999 // BKN057/// BKN068/// 16/11 Q1016=
METAR EPBY 231830Z 24003KT 9999 SCT032 17/14 Q1016=
METAR EPGD 231830Z 18005KT CAVOK 17/16 Q1016=
METAR EPKK 231830Z 08007KT CAVOK 19/14 Q1016=
METAR EPKT 231830Z 03002KT CAVOK 17/13 Q1016=
METAR EPLB 231830Z 30002KT CAVOK 18/16 Q1016=
METAR EPLL 231830Z VRB02KT 9999 FEW033 SCT038 BKN043 20/14 Q1016=
METAR EPMO 231830Z 16003KT 120V180 2900 BR MIFG NSC 18/18 Q1017=
METAR EPPO 231830Z 23002KT CAVOK 17/15 Q1016=
METAR EPRZ 231830Z 19003KT 8000 FEW006 17/16 Q1017=
METAR EPWA 231830Z 19002KT CAVOK 18/16 Q1016 NOSIG=
METAR EPWR 231830Z 34004KT 9999 FEW040CB BKN044 17/14 Q1017=
METAR LHBP 231830Z 02003KT 310V110 9999 -SHRA FEW045TCU BKN090 18/15 Q1015 NOSIG=
METAR LHPR 231815Z AUTO 04004KT CAVOK 20/14 Q1015=
METAR LHSM 231815Z AUTO VRB03KT 9999 SCT065 //////CB 20/15 Q1015=
METAR LKBC 231830Z AUTO VRB02KT //// // SCT079 OVC100 19/10 Q1015=
METAR LKCR 231830Z AUTO 08003KT 9999 SCT240 19/11 Q1015=
METAR LKCS 231830Z AUTO 11002KT CAVOK 19/10 Q1015=
METAR LKCV 231830Z 07003KT CAVOK 20/11 Q1015 NOSIG RMK BLU BLU=
METAR LKKB 231830Z 05004KT CAVOK 20/09 Q1015 NOSIG RMK BLU BLU=
METAR LKKU NIL
METAR LKKV 231830Z 07006KT CAVOK 16/08 Q1016=
METAR LKLN 231830Z AUTO 06004KT 030V090 9999 BKN087 OVC099 20/09 Q1015=
METAR LKMT 231830Z 01004KT CAVOK 18/12 Q1016 NOSIG=
METAR LKNA 231830Z 08004KT CAVOK 18/11 Q1016 RMK BLACK=
METAR LKPD 231830Z 07004KT CAVOK 20/11 Q1015 NOSIG RMK BLU BLU=
METAR LKPJ 231830Z AUTO 01004KT 350V050 CAVOK 19/12 Q1015=
METAR LKPR 231830Z 05007KT CAVOK 19/08 Q1016 NOSIG=
METAR LKTB 231830Z 05003KT 020V080 CAVOK 20/10 Q1015 NOSIG=
METAR LKTH 231830Z AUTO VRB02KT 9999 FEW051 OVC073 16/12 Q1017=
METAR LKVO NIL
METAR LOWG 231820Z AUTO 03008KT 9999 FEW070CB 17/13 Q1016 NOSIG=
METAR LOWI 231820Z 29009KT 9999 SCT060 BKN075 14/08 Q1016 NOSIG=
METAR LOWK 231820Z AUTO 01004KT 270V040 9999 FEW070 BKN080 15/12 Q1017 NOSIG=
METAR LOWL 231820Z AUTO 11008KT 9999 FEW040CB 19/12 Q1014 NOSIG=
METAR LOWS 231820Z 29010KT 9999 VCTS FEW009 FEW040CB SCT042 BKN060 14/11 Q1016 BECMG NSW=
METAR LOWW 231820Z 08005KT 9999 FEW060TCU 21/10 Q1014 NOSIG=
METAR LOXT 231820Z 03003KT 40KM FEW050CU FEW050TCU SCT100AC BKN300CI 21/12 Q1014 NOSIG RMK TCU S/BKN=
METAR LOXZ 231750Z 24007KT 7000 SHRA FEW010 SCT040CB SCT060 BKN090 13/10 Q1017=
METAR LZIB 231830Z 12002KT CAVOK 21/14 Q1014 NOSIG=
METAR LZKZ 231830Z 01006KT 9999 -RA FEW017 17/15 Q1016 NOSIG=
METAR LZMC 231800Z 08002KT CAVOK 21/12 Q1015=
METAR LZPP 231830Z 09003KT 9999 FEW049 20/13 Q1015=
METAR LZSL 231800Z VRB02KT 9999 FEW035 SCT090 18/14 Q1016=
METAR LZTT 231830Z 07005KT 9999 FEW007 SCT066 14/13 Q1018=
METAR LZZI 231830Z 03004KT CAVOK 18/13 Q1016=